createdAt,value
2024-04-11T00:00:18.495Z,12.26
2024-04-11T00:05:34.329Z,12.30
2024-04-11T00:10:50.349Z,12.37
2024-04-11T00:16:03.251Z,12.58
2024-04-11T00:21:14.270Z,12.63
2024-04-11T00:26:19.444Z,12.74
2024-04-11T00:31:29.798Z,12.77
2024-04-11T00:36:38.174Z,12.84
2024-04-11T00:41:43.625Z,13.06
2024-04-11T00:46:52.366Z,13.12
2024-04-11T00:52:09.596Z,13.14
2024-04-11T00:57:18.540Z,12.94
2024-04-11T01:07:43.025Z,13.13
2024-04-11T01:12:59.408Z,13.06
2024-04-11T01:23:29.964Z,12.97
2024-04-11T01:28:44.182Z,12.85
2024-04-11T01:33:56.039Z,12.89
2024-04-11T01:39:12.144Z,12.77
2024-04-11T01:44:22.466Z,12.89
2024-04-11T01:49:31.641Z,12.84
2024-04-11T01:54:47.064Z,12.91
2024-04-11T02:00:01.875Z,12.91
2024-04-11T02:05:16.863Z,12.88
2024-04-11T02:10:39.163Z,12.86
2024-04-11T02:15:46.304Z,12.87
2024-04-11T02:21:05.131Z,12.85
2024-04-11T02:31:43.098Z,12.85
2024-04-11T02:36:56.410Z,12.85
2024-04-11T02:42:18.450Z,12.70
2024-04-11T02:52:42.551Z,13.01
2024-04-11T02:57:49.377Z,12.89
2024-04-11T03:02:54.594Z,13.28
2024-04-11T03:08:07.820Z,13.40
2024-04-11T03:13:26.378Z,13.54
2024-04-11T03:18:37.136Z,13.64
2024-04-11T03:23:43.202Z,13.96
2024-04-11T03:28:48.937Z,14.19
2024-04-11T03:34:00.387Z,14.49
2024-04-11T03:39:12.314Z,14.83
2024-04-11T03:44:29.003Z,15.00
2024-04-11T03:49:36.472Z,15.03
2024-04-11T03:54:48.485Z,14.98
2024-04-11T03:59:55.059Z,14.96
2024-04-11T04:05:02.307Z,14.96
2024-04-11T04:10:13.784Z,15.08
2024-04-11T04:15:22.224Z,15.27
2024-04-11T04:20:30.437Z,15.58
2024-04-11T04:25:41.855Z,15.96
2024-04-11T04:30:48.842Z,16.30
2024-04-11T04:35:59.144Z,16.53
2024-04-11T04:41:06.376Z,16.67
2024-04-11T04:46:30.072Z,16.75
2024-04-11T04:56:54.733Z,17.28
2024-04-11T05:02:00.641Z,17.78
2024-04-11T05:07:15.600Z,18.06
2024-04-11T05:12:28.542Z,18.30
2024-04-11T05:17:53.168Z,18.58
2024-04-11T05:23:00.321Z,18.81
2024-04-11T05:28:17.373Z,18.61
2024-04-11T05:33:29.461Z,18.60
2024-04-11T05:38:39.317Z,18.38
2024-04-11T05:43:53.726Z,18.09
2024-04-11T05:54:25.547Z,18.09
2024-04-11T05:59:33.077Z,18.14
2024-04-11T06:04:56.233Z,18.19
2024-04-11T06:10:05.543Z,18.20
2024-04-11T06:15:12.402Z,18.35
2024-04-11T06:25:41.025Z,18.31
2024-04-11T06:30:57.369Z,18.57
2024-04-11T06:36:08.257Z,18.44
2024-04-11T06:41:20.278Z,18.38
2024-04-11T06:46:34.285Z,18.16
2024-04-11T06:51:41.276Z,18.28
2024-04-11T06:56:50.110Z,18.50
2024-04-11T07:07:15.290Z,19.15
2024-04-11T07:12:29.453Z,19.28
2024-04-11T07:22:59.533Z,19.52
2024-04-11T07:28:08.723Z,19.82
2024-04-11T07:33:18.174Z,19.96
2024-04-11T07:38:27.220Z,19.62
2024-04-11T07:43:36.606Z,20.14
2024-04-11T07:54:20.827Z,20.24
2024-04-11T07:59:38.854Z,20.19
2024-04-11T08:04:52.257Z,20.24
2024-04-11T08:15:17.662Z,19.66
2024-04-11T08:20:28.483Z,19.34
2024-04-11T08:25:45.562Z,19.48
2024-04-11T08:30:59.761Z,19.59
2024-04-11T08:36:05.253Z,19.89
2024-04-11T08:41:11.563Z,20.56
2024-04-11T08:46:20.614Z,20.92
2024-04-11T08:51:44.892Z,20.31
2024-04-11T08:56:55.032Z,19.98
2024-04-11T09:07:25.019Z,20.10
2024-04-11T09:17:46.633Z,20.04
2024-04-11T09:22:58.678Z,19.53
2024-04-11T09:28:25.287Z,19.64
2024-04-11T09:33:35.881Z,19.79
2024-04-11T09:38:54.035Z,19.32
2024-04-11T09:44:02.049Z,19.10
2024-04-11T09:49:15.800Z,19.21
2024-04-11T09:54:23.395Z,19.74
2024-04-11T09:59:30.449Z,19.44
2024-04-11T10:04:46.102Z,19.59
2024-04-11T10:09:53.944Z,19.77
2024-04-11T10:15:01.147Z,19.68
2024-04-11T10:20:26.021Z,19.74
2024-04-11T10:25:37.959Z,19.62
2024-04-11T10:30:52.250Z,19.18
2024-04-11T10:36:05.758Z,19.21
2024-04-11T10:41:20.739Z,19.27
2024-04-11T10:46:32.186Z,19.33
2024-04-11T10:56:57.796Z,19.15
2024-04-11T11:02:09.141Z,19.28
2024-04-11T11:07:25.026Z,18.91
2024-04-11T11:12:44.573Z,18.62
2024-04-11T11:17:51.083Z,18.46
2024-04-11T11:23:14.818Z,18.57
2024-04-11T11:28:23.333Z,18.61
2024-04-11T11:33:35.560Z,18.80
2024-04-11T11:38:45.682Z,18.68
2024-04-11T11:43:55.467Z,18.79
2024-04-11T11:49:05.651Z,18.63
2024-04-11T11:54:15.648Z,18.25
2024-04-11T11:59:21.342Z,18.15
2024-04-11T12:04:38.652Z,17.97
2024-04-11T12:09:59.582Z,17.98
2024-04-11T12:15:15.170Z,17.76
2024-04-11T12:20:22.670Z,17.86
2024-04-11T12:25:29.178Z,17.86
2024-04-11T12:30:34.035Z,17.80
2024-04-11T12:35:47.491Z,17.67
2024-04-11T12:47:07.112Z,17.59
2024-04-11T12:52:14.710Z,17.76
2024-04-11T12:57:19.389Z,17.75
2024-04-11T13:02:41.814Z,18.02
2024-04-11T13:07:49.277Z,18.03
2024-04-11T13:12:54.465Z,17.89
2024-04-11T13:18:02.712Z,17.63
2024-04-11T13:28:56.946Z,17.44
2024-04-11T13:34:08.138Z,17.18
2024-04-11T13:39:20.086Z,17.00
2024-04-11T13:44:34.693Z,16.78
2024-04-11T13:55:22.363Z,16.38
2024-04-11T14:11:26.952Z,16.10
2024-04-11T14:16:53.048Z,15.95
2024-04-11T14:22:09.071Z,15.80
2024-04-11T14:27:23.599Z,15.78
2024-04-11T14:32:42.170Z,15.66
2024-04-11T14:38:09.398Z,15.57
2024-04-11T14:43:32.752Z,15.43
2024-04-11T14:48:47.039Z,15.26
2024-04-11T14:54:03.153Z,15.15
2024-04-11T14:59:13.760Z,14.97
2024-04-11T15:04:27.581Z,14.98
2024-04-11T15:09:40.560Z,14.87
2024-04-11T15:14:49.238Z,14.89
2024-04-11T15:20:11.123Z,14.87
2024-04-11T15:25:36.225Z,14.79
2024-04-11T15:31:13.478Z,14.61
2024-04-11T15:36:27.057Z,14.55
2024-04-11T15:41:40.154Z,14.32
2024-04-11T15:46:52.445Z,14.27
2024-04-11T15:51:58.806Z,14.15
2024-04-11T15:57:15.831Z,13.74
2024-04-11T16:02:25.844Z,13.91
2024-04-11T16:07:44.573Z,13.89
2024-04-11T16:12:56.238Z,13.74
2024-04-11T16:18:08.544Z,13.66
2024-04-11T16:23:20.950Z,13.54
2024-04-11T16:28:33.277Z,13.40
2024-04-11T16:38:56.725Z,13.17
2024-04-11T16:44:12.153Z,13.00
2024-04-11T16:55:14.291Z,12.76
2024-04-11T17:01:32.777Z,12.86
2024-04-11T17:07:20.035Z,12.71
2024-04-11T17:12:31.750Z,12.60
2024-04-11T17:18:08.740Z,12.51
2024-04-11T17:34:01.110Z,12.57
2024-04-11T17:39:28.998Z,12.40
2024-04-11T17:44:40.348Z,12.30
2024-04-11T17:49:59.743Z,12.35
2024-04-11T17:55:26.683Z,12.39
2024-04-11T18:00:38.335Z,12.50
2024-04-11T18:11:02.501Z,12.33
2024-04-11T18:16:19.530Z,12.30
2024-04-11T18:21:35.792Z,12.22
2024-04-11T18:27:00.740Z,12.15
2024-04-11T18:32:09.221Z,11.80
2024-04-11T18:37:18.356Z,11.97
2024-04-11T18:42:24.506Z,11.95
2024-04-11T18:47:45.472Z,11.86
2024-04-11T18:52:59.234Z,11.76
2024-04-11T18:58:10.239Z,11.71
2024-04-11T19:14:02.722Z,11.67
2024-04-11T19:19:16.729Z,11.69
2024-04-11T19:24:49.581Z,11.59
2024-04-11T19:29:55.061Z,11.56
2024-04-11T19:35:07.350Z,11.43
2024-04-11T19:40:25.700Z,11.23
2024-04-11T19:45:35.182Z,11.12
2024-04-11T19:50:44.058Z,11.19
2024-04-11T20:01:56.393Z,11.09
2024-04-11T20:07:06.651Z,11.01
2024-04-11T20:12:18.040Z,11.03
2024-04-11T20:17:39.515Z,10.95
2024-04-11T20:22:49.475Z,10.89
2024-04-11T20:28:08.316Z,10.81
2024-04-11T20:33:22.607Z,10.72
2024-04-11T20:38:27.182Z,10.84
2024-04-11T20:43:59.585Z,10.92
2024-04-11T20:49:26.269Z,10.90
2024-04-11T20:54:45.364Z,10.89
2024-04-11T21:00:07.749Z,10.83
2024-04-11T21:05:25.637Z,10.78
2024-04-11T21:11:01.196Z,10.68
2024-04-11T21:16:26.161Z,10.71
2024-04-11T21:21:47.771Z,10.65
2024-04-11T21:27:08.968Z,10.61
2024-04-11T21:32:35.454Z,10.46
2024-04-11T21:37:52.964Z,10.28
2024-04-11T21:43:08.492Z,10.43
2024-04-11T21:48:20.388Z,10.21
2024-04-11T21:58:55.735Z,10.16
2024-04-11T22:04:22.779Z,10.23
2024-04-11T22:09:47.293Z,10.18
2024-04-11T22:15:10.944Z,10.18
2024-04-11T22:20:25.715Z,10.14
2024-04-11T22:25:39.110Z,10.06
2024-04-11T22:31:07.268Z,10.06
2024-04-11T22:42:02.345Z,10.17
2024-04-11T22:47:08.239Z,10.09
2024-04-11T22:52:33.706Z,10.03
2024-04-11T22:57:50.197Z,9.92
2024-04-11T23:02:57.240Z,10.02
2024-04-11T23:08:06.608Z,9.91
2024-04-11T23:13:15.648Z,9.90
2024-04-11T23:18:40.080Z,9.94
2024-04-11T23:29:17.370Z,9.93
2024-04-11T23:34:30.731Z,9.82
2024-04-11T23:40:01.531Z,9.88
2024-04-11T23:45:28.277Z,9.76
2024-04-11T23:50:44.521Z,9.66
